sensor_id;sensor_type;location;lat;lon;timestamp;temperature;humidity
53599;DHT22;39485;45.702;11.364;2023-04-01T00:00:18;7.60;99.90
53599;DHT22;39485;45.702;11.364;2023-04-01T00:02:44;7.60;99.90
53599;DHT22;39485;45.702;11.364;2023-04-01T00:05:10;7.60;99.90
53599;DHT22;39485;45.702;11.364;2023-04-01T00:07:39;7.60;99.90
53599;DHT22;39485;45.702;11.364;2023-04-01T00:10:10;7.60;99.90
53599;DHT22;39485;45.702;11.364;2023-04-01T00:12:37;7.60;99.90
53599;DHT22;39485;45.702;11.364;2023-04-01T00:15:05;7.50;99.90
53599;DHT22;39485;45.702;11.364;2023-04-01T00:17:31;7.60;99.90
53599;DHT22;39485;45.702;11.364;2023-04-01T00:19:57;7.60;99.90
53599;DHT22;39485;45.702;11.364;2023-04-01T00:22:26;7.50;99.90
53599;DHT22;39485;45.702;11.364;2023-04-01T00:24:53;7.50;99.90
53599;DHT22;39485;45.702;11.364;2023-04-01T00:27:19;7.50;99.90
53599;DHT22;39485;45.702;11.364;2023-04-01T00:29:46;7.50;99.90
53599;DHT22;39485;45.702;11.364;2023-04-01T00:32:14;7.50;99.90
53599;DHT22;39485;45.702;11.364;2023-04-01T00:34:40;7.40;99.90
53599;DHT22;39485;45.702;11.364;2023-04-01T00:37:06;7.50;99.90
53599;DHT22;39485;45.702;11.364;2023-04-01T00:39:33;7.40;99.90
53599;DHT22;39485;45.702;11.364;2023-04-01T00:42:00;7.40;99.90
53599;DHT22;39485;45.702;11.364;2023-04-01T00:44:29;7.40;99.90
53599;DHT22;39485;45.702;11.364;2023-04-01T00:46:55;7.40;99.90
53599;DHT22;39485;45.702;11.364;2023-04-01T00:49:24;7.40;99.90
53599;DHT22;39485;45.702;11.364;2023-04-01T00:51:53;7.30;99.90
53599;DHT22;39485;45.702;11.364;2023-04-01T00:54:21;7.30;99.90
53599;DHT22;39485;45.702;11.364;2023-04-01T00:57:14;7.30;99.90
53599;DHT22;39485;45.702;11.364;2023-04-01T00:59:43;7.20;99.90
53599;DHT22;39485;45.702;11.364;2023-04-01T01:02:11;7.20;99.90
53599;DHT22;39485;45.702;11.364;2023-04-01T01:04:38;7.20;99.90
53599;DHT22;39485;45.702;11.364;2023-04-01T01:09:47;7.30;99.90
53599;DHT22;39485;45.702;11.364;2023-04-01T01:12:23;7.40;99.90
53599;DHT22;39485;45.702;11.364;2023-04-01T01:36:53;7.50;99.90
53599;DHT22;39485;45.702;11.364;2023-04-01T01:39:25;7.50;99.90
53599;DHT22;39485;45.702;11.364;2023-04-01T01:41:53;7.50;99.90
53599;DHT22;39485;45.702;11.364;2023-04-01T01:44:21;7.50;99.90
53599;DHT22;39485;45.702;11.364;2023-04-01T01:46:47;7.50;99.90
53599;DHT22;39485;45.702;11.364;2023-04-01T01:49:15;7.60;99.90
53599;DHT22;39485;45.702;11.364;2023-04-01T01:51:42;7.60;99.90
53599;DHT22;39485;45.702;11.364;2023-04-01T01:54:13;7.60;99.90
53599;DHT22;39485;45.702;11.364;2023-04-01T01:56:41;7.70;99.90
53599;DHT22;39485;45.702;11.364;2023-04-01T01:59:11;7.70;99.90
53599;DHT22;39485;45.702;11.364;2023-04-01T02:01:41;7.70;99.90
53599;DHT22;39485;45.702;11.364;2023-04-01T02:04:09;7.70;99.90
53599;DHT22;39485;45.702;11.364;2023-04-01T02:06:39;7.80;99.90
53599;DHT22;39485;45.702;11.364;2023-04-01T02:09:10;7.70;99.90
53599;DHT22;39485;45.702;11.364;2023-04-01T02:11:48;7.70;99.90
53599;DHT22;39485;45.702;11.364;2023-04-01T02:14:17;7.70;99.90
53599;DHT22;39485;45.702;11.364;2023-04-01T02:19:15;7.60;99.90
53599;DHT22;39485;45.702;11.364;2023-04-01T02:21:53;7.60;99.90
53599;DHT22;39485;45.702;11.364;2023-04-01T02:24:22;7.60;99.90
53599;DHT22;39485;45.702;11.364;2023-04-01T02:26:50;7.60;99.90
53599;DHT22;39485;45.702;11.364;2023-04-01T02:29:21;7.60;99.90
53599;DHT22;39485;45.702;11.364;2023-04-01T02:31:47;7.60;99.90
53599;DHT22;39485;45.702;11.364;2023-04-01T02:34:14;7.60;99.90
53599;DHT22;39485;45.702;11.364;2023-04-01T02:36:41;7.60;99.90
53599;DHT22;39485;45.702;11.364;2023-04-01T02:39:08;7.60;99.90
53599;DHT22;39485;45.702;11.364;2023-04-01T02:41:39;7.60;99.90
53599;DHT22;39485;45.702;11.364;2023-04-01T02:44:06;7.60;99.90
53599;DHT22;39485;45.702;11.364;2023-04-01T02:46:32;7.60;99.90
53599;DHT22;39485;45.702;11.364;2023-04-01T02:48:58;7.60;99.90
53599;DHT22;39485;45.702;11.364;2023-04-01T02:51:25;7.60;99.90
53599;DHT22;39485;45.702;11.364;2023-04-01T02:53:50;7.50;99.90
53599;DHT22;39485;45.702;11.364;2023-04-01T02:56:16;7.50;99.90
53599;DHT22;39485;45.702;11.364;2023-04-01T02:58:42;7.50;99.90
53599;DHT22;39485;45.702;11.364;2023-04-01T03:01:07;7.40;99.90
53599;DHT22;39485;45.702;11.364;2023-04-01T03:03:33;7.40;99.90
53599;DHT22;39485;45.702;11.364;2023-04-01T03:06:07;7.30;99.90
53599;DHT22;39485;45.702;11.364;2023-04-01T03:08:33;7.20;99.90
53599;DHT22;39485;45.702;11.364;2023-04-01T03:10:59;7.20;99.90
53599;DHT22;39485;45.702;11.364;2023-04-01T03:13:25;7.10;99.90
53599;DHT22;39485;45.702;11.364;2023-04-01T03:15:51;7.10;99.90
53599;DHT22;39485;45.702;11.364;2023-04-01T03:18:17;7.10;99.90
53599;DHT22;39485;45.702;11.364;2023-04-01T03:20:42;7.00;99.90
53599;DHT22;39485;45.702;11.364;2023-04-01T03:23:08;7.00;99.90
53599;DHT22;39485;45.702;11.364;2023-04-01T03:25:34;6.90;99.90
53599;DHT22;39485;45.702;11.364;2023-04-01T03:28:00;6.90;99.90
53599;DHT22;39485;45.702;11.364;2023-04-01T03:30:26;6.90;99.90
53599;DHT22;39485;45.702;11.364;2023-04-01T03:32:53;6.80;99.90
53599;DHT22;39485;45.702;11.364;2023-04-01T03:35:19;6.80;99.90
53599;DHT22;39485;45.702;11.364;2023-04-01T03:37:44;6.80;99.90
53599;DHT22;39485;45.702;11.364;2023-04-01T03:40:10;6.80;99.90
53599;DHT22;39485;45.702;11.364;2023-04-01T03:42:36;6.80;99.90
53599;DHT22;39485;45.702;11.364;2023-04-01T03:45:03;6.80;99.90
53599;DHT22;39485;45.702;11.364;2023-04-01T03:47:29;6.80;99.90
53599;DHT22;39485;45.702;11.364;2023-04-01T03:49:55;6.80;99.90
53599;DHT22;39485;45.702;11.364;2023-04-01T03:52:21;6.80;99.90
53599;DHT22;39485;45.702;11.364;2023-04-01T03:54:47;6.80;99.90
53599;DHT22;39485;45.702;11.364;2023-04-01T03:57:12;6.90;99.90
53599;DHT22;39485;45.702;11.364;2023-04-01T03:59:38;6.90;99.90
53599;DHT22;39485;45.702;11.364;2023-04-01T04:02:03;6.90;99.90
53599;DHT22;39485;45.702;11.364;2023-04-01T04:04:30;6.80;99.90
53599;DHT22;39485;45.702;11.364;2023-04-01T04:06:56;6.90;99.90
53599;DHT22;39485;45.702;11.364;2023-04-01T04:09:22;6.90;99.90
53599;DHT22;39485;45.702;11.364;2023-04-01T04:11:48;6.90;99.90
53599;DHT22;39485;45.702;11.364;2023-04-01T04:14:14;6.80;99.90
53599;DHT22;39485;45.702;11.364;2023-04-01T04:16:40;6.80;99.90
53599;DHT22;39485;45.702;11.364;2023-04-01T04:19:06;6.80;99.90
53599;DHT22;39485;45.702;11.364;2023-04-01T04:21:31;6.80;99.90
53599;DHT22;39485;45.702;11.364;2023-04-01T04:23:59;6.80;99.90
53599;DHT22;39485;45.702;11.364;2023-04-01T04:26:25;6.80;99.90
53599;DHT22;39485;45.702;11.364;2023-04-01T04:28:51;6.80;99.90
53599;DHT22;39485;45.702;11.364;2023-04-01T04:31:21;6.80;99.90
53599;DHT22;39485;45.702;11.364;2023-04-01T04:33:47;6.90;99.90
53599;DHT22;39485;45.702;11.364;2023-04-01T04:36:13;6.90;99.90
53599;DHT22;39485;45.702;11.364;2023-04-01T04:38:39;6.80;99.90
53599;DHT22;39485;45.702;11.364;2023-04-01T04:41:12;6.90;99.90
53599;DHT22;39485;45.702;11.364;2023-04-01T04:43:39;6.90;99.90
53599;DHT22;39485;45.702;11.364;2023-04-01T04:46:07;6.80;99.90
53599;DHT22;39485;45.702;11.364;2023-04-01T04:48:32;6.90;99.90
53599;DHT22;39485;45.702;11.364;2023-04-01T04:50:58;6.90;99.90
53599;DHT22;39485;45.702;11.364;2023-04-01T04:53:24;6.90;99.90
53599;DHT22;39485;45.702;11.364;2023-04-01T04:55:50;6.80;99.90
53599;DHT22;39485;45.702;11.364;2023-04-01T04:58:17;6.80;99.90
53599;DHT22;39485;45.702;11.364;2023-04-01T05:00:43;6.80;99.90
53599;DHT22;39485;45.702;11.364;2023-04-01T05:03:09;6.80;99.90
53599;DHT22;39485;45.702;11.364;2023-04-01T05:05:34;6.80;99.90
53599;DHT22;39485;45.702;11.364;2023-04-01T05:08:00;6.80;99.90
53599;DHT22;39485;45.702;11.364;2023-04-01T05:10:26;6.70;99.90
53599;DHT22;39485;45.702;11.364;2023-04-01T05:12:52;6.70;99.90
53599;DHT22;39485;45.702;11.364;2023-04-01T05:15:18;6.80;99.90
53599;DHT22;39485;45.702;11.364;2023-04-01T05:17:43;6.80;99.90
53599;DHT22;39485;45.702;11.364;2023-04-01T05:20:11;6.80;99.90
53599;DHT22;39485;45.702;11.364;2023-04-01T05:22:36;6.70;99.90
53599;DHT22;39485;45.702;11.364;2023-04-01T05:25:02;6.70;99.90
53599;DHT22;39485;45.702;11.364;2023-04-01T05:27:28;6.70;99.90
53599;DHT22;39485;45.702;11.364;2023-04-01T05:29:53;6.70;99.90
53599;DHT22;39485;45.702;11.364;2023-04-01T05:32:19;6.70;99.90
53599;DHT22;39485;45.702;11.364;2023-04-01T05:34:45;6.70;99.90
53599;DHT22;39485;45.702;11.364;2023-04-01T05:37:10;6.70;99.90
53599;DHT22;39485;45.702;11.364;2023-04-01T05:39:39;6.60;99.90
53599;DHT22;39485;45.702;11.364;2023-04-01T05:42:06;6.70;99.90
53599;DHT22;39485;45.702;11.364;2023-04-01T05:44:33;6.70;99.90
53599;DHT22;39485;45.702;11.364;2023-04-01T05:46:58;6.70;99.90
53599;DHT22;39485;45.702;11.364;2023-04-01T05:49:24;6.70;99.90
53599;DHT22;39485;45.702;11.364;2023-04-01T05:51:50;6.70;99.90
53599;DHT22;39485;45.702;11.364;2023-04-01T05:54:16;6.80;99.90
53599;DHT22;39485;45.702;11.364;2023-04-01T05:56:42;6.80;99.90
53599;DHT22;39485;45.702;11.364;2023-04-01T05:59:10;6.80;99.90
53599;DHT22;39485;45.702;11.364;2023-04-01T06:01:36;6.80;99.90
53599;DHT22;39485;45.702;11.364;2023-04-01T06:04:02;6.80;99.90
53599;DHT22;39485;45.702;11.364;2023-04-01T06:06:29;6.90;99.90
53599;DHT22;39485;45.702;11.364;2023-04-01T06:08:57;6.90;99.90
53599;DHT22;39485;45.702;11.364;2023-04-01T06:34:32;7.80;99.90
53599;DHT22;39485;45.702;11.364;2023-04-01T06:45:32;8.30;99.90
53599;DHT22;39485;45.702;11.364;2023-04-01T06:50:56;8.60;99.90
53599;DHT22;39485;45.702;11.364;2023-04-01T06:53:42;8.70;99.90
53599;DHT22;39485;45.702;11.364;2023-04-01T06:56:21;8.80;99.90
53599;DHT22;39485;45.702;11.364;2023-04-01T06:58:54;9.00;99.90
53599;DHT22;39485;45.702;11.364;2023-04-01T07:01:39;9.10;99.90
53599;DHT22;39485;45.702;11.364;2023-04-01T07:04:23;9.30;99.90
53599;DHT22;39485;45.702;11.364;2023-04-01T07:06:55;9.40;99.90
53599;DHT22;39485;45.702;11.364;2023-04-01T07:09:26;9.50;99.90
53599;DHT22;39485;45.702;11.364;2023-04-01T07:11:56;9.80;99.90
53599;DHT22;39485;45.702;11.364;2023-04-01T07:14:32;9.90;99.90
53599;DHT22;39485;45.702;11.364;2023-04-01T07:17:17;10.00;99.90
53599;DHT22;39485;45.702;11.364;2023-04-01T07:19:50;10.20;99.90
53599;DHT22;39485;45.702;11.364;2023-04-01T07:22:28;10.30;99.90
53599;DHT22;39485;45.702;11.364;2023-04-01T07:24:55;10.40;99.90
53599;DHT22;39485;45.702;11.364;2023-04-01T07:27:23;10.60;99.90
53599;DHT22;39485;45.702;11.364;2023-04-01T07:29:49;10.70;99.90
53599;DHT22;39485;45.702;11.364;2023-04-01T07:37:22;11.10;99.90
53599;DHT22;39485;45.702;11.364;2023-04-01T07:50:48;11.50;99.90
53599;DHT22;39485;45.702;11.364;2023-04-01T07:53:36;11.60;99.90
53599;DHT22;39485;45.702;11.364;2023-04-01T07:56:10;11.70;99.90
53599;DHT22;39485;45.702;11.364;2023-04-01T08:11:56;12.30;99.90
53599;DHT22;39485;45.702;11.364;2023-04-01T08:14:56;12.30;99.90
53599;DHT22;39485;45.702;11.364;2023-04-01T08:17:31;12.30;99.90
53599;DHT22;39485;45.702;11.364;2023-04-01T08:25:49;12.60;99.90
53599;DHT22;39485;45.702;11.364;2023-04-01T08:28:29;12.70;99.90
53599;DHT22;39485;45.702;11.364;2023-04-01T08:31:09;12.80;99.90
53599;DHT22;39485;45.702;11.364;2023-04-01T08:33:38;12.90;99.90
53599;DHT22;39485;45.702;11.364;2023-04-01T08:36:16;13.00;99.90
53599;DHT22;39485;45.702;11.364;2023-04-01T08:41:51;13.20;99.90
53599;DHT22;39485;45.702;11.364;2023-04-01T08:44:24;13.30;99.90
53599;DHT22;39485;45.702;11.364;2023-04-01T08:50:26;13.70;99.90
53599;DHT22;39485;45.702;11.364;2023-04-01T08:53:21;13.90;99.90
53599;DHT22;39485;45.702;11.364;2023-04-01T08:56:21;14.00;99.90
53599;DHT22;39485;45.702;11.364;2023-04-01T09:05:38;14.40;99.90
53599;DHT22;39485;45.702;11.364;2023-04-01T09:30:45;14.90;99.90
53599;DHT22;39485;45.702;11.364;2023-04-01T09:33:01;15.00;99.90
53599;DHT22;39485;45.702;11.364;2023-04-01T09:38:23;15.00;99.90
53599;DHT22;39485;45.702;11.364;2023-04-01T09:40:57;15.10;99.90
53599;DHT22;39485;45.702;11.364;2023-04-01T09:43:28;15.10;99.90
53599;DHT22;39485;45.702;11.364;2023-04-01T10:00:06;15.20;99.90
53599;DHT22;39485;45.702;11.364;2023-04-01T10:05:45;15.20;99.90
53599;DHT22;39485;45.702;11.364;2023-04-01T10:08:36;15.20;99.90
53599;DHT22;39485;45.702;11.364;2023-04-01T10:19:39;15.20;99.90
53599;DHT22;39485;45.702;11.364;2023-04-01T10:28:24;15.30;99.90
53599;DHT22;39485;45.702;11.364;2023-04-01T10:55:53;16.00;99.90
53599;DHT22;39485;45.702;11.364;2023-04-01T11:37:29;16.80;99.90
53599;DHT22;39485;45.702;11.364;2023-04-01T11:43:37;16.80;99.90
53599;DHT22;39485;45.702;11.364;2023-04-01T11:49:14;17.00;99.90
53599;DHT22;39485;45.702;11.364;2023-04-01T12:10:21;17.60;99.90
53599;DHT22;39485;45.702;11.364;2023-04-01T12:12:59;17.60;99.90
53599;DHT22;39485;45.702;11.364;2023-04-01T12:20:57;17.70;99.90
53599;DHT22;39485;45.702;11.364;2023-04-01T12:35:17;17.70;99.90
53599;DHT22;39485;45.702;11.364;2023-04-01T12:40:25;17.70;99.90
53599;DHT22;39485;45.702;11.364;2023-04-01T13:10:31;17.70;99.80
53599;DHT22;39485;45.702;11.364;2023-04-01T13:16:07;17.50;99.70
53599;DHT22;39485;45.702;11.364;2023-04-01T13:26:56;17.10;99.90
53599;DHT22;39485;45.702;11.364;2023-04-01T13:29:38;17.10;99.90
53599;DHT22;39485;45.702;11.364;2023-04-01T13:35:31;17.10;99.90
53599;DHT22;39485;45.702;11.364;2023-04-01T13:43:37;17.30;99.90
53599;DHT22;39485;45.702;11.364;2023-04-01T13:49:04;17.40;99.90
53599;DHT22;39485;45.702;11.364;2023-04-01T13:54:17;17.50;99.70
53599;DHT22;39485;45.702;11.364;2023-04-01T14:13:58;17.40;96.30
53599;DHT22;39485;45.702;11.364;2023-04-01T14:21:43;17.20;96.90
53599;DHT22;39485;45.702;11.364;2023-04-01T14:27:10;17.10;97.10
53599;DHT22;39485;45.702;11.364;2023-04-01T14:30:16;17.10;97.20
53599;DHT22;39485;45.702;11.364;2023-04-01T14:41:00;17.20;96.80
53599;DHT22;39485;45.702;11.364;2023-04-01T14:49:46;17.50;96.70
53599;DHT22;39485;45.702;11.364;2023-04-01T14:54:49;17.70;96.60
53599;DHT22;39485;45.702;11.364;2023-04-01T14:57:24;17.80;95.60
53599;DHT22;39485;45.702;11.364;2023-04-01T15:07:53;18.30;88.30
53599;DHT22;39485;45.702;11.364;2023-04-01T15:10:43;18.30;86.70
53599;DHT22;39485;45.702;11.364;2023-04-01T15:27:19;19.10;75.30
53599;DHT22;39485;45.702;11.364;2023-04-01T15:30:12;19.10;70.50
53599;DHT22;39485;45.702;11.364;2023-04-01T15:41:24;19.40;68.80
53599;DHT22;39485;45.702;11.364;2023-04-01T15:43:53;19.30;69.00
53599;DHT22;39485;45.702;11.364;2023-04-01T15:46:41;19.30;68.90
53599;DHT22;39485;45.702;11.364;2023-04-01T15:54:49;19.10;66.60
53599;DHT22;39485;45.702;11.364;2023-04-01T16:00:22;19.00;66.60
53599;DHT22;39485;45.702;11.364;2023-04-01T16:11:35;19.00;67.40
53599;DHT22;39485;45.702;11.364;2023-04-01T16:19:59;18.70;68.40
53599;DHT22;39485;45.702;11.364;2023-04-01T16:23:01;18.60;68.30
53599;DHT22;39485;45.702;11.364;2023-04-01T16:25:44;18.50;69.00
53599;DHT22;39485;45.702;11.364;2023-04-01T16:31:09;18.30;71.20
53599;DHT22;39485;45.702;11.364;2023-04-01T16:33:57;18.20;71.20
53599;DHT22;39485;45.702;11.364;2023-04-01T16:36:44;18.00;71.80
53599;DHT22;39485;45.702;11.364;2023-04-01T16:47:38;17.70;75.20
53599;DHT22;39485;45.702;11.364;2023-04-01T16:50:23;17.60;75.80
53599;DHT22;39485;45.702;11.364;2023-04-01T16:53:14;17.50;76.60
53599;DHT22;39485;45.702;11.364;2023-04-01T16:56:12;17.40;77.50
53599;DHT22;39485;45.702;11.364;2023-04-01T17:01:49;17.20;79.40
53599;DHT22;39485;45.702;11.364;2023-04-01T17:04:23;17.10;80.60
53599;DHT22;39485;45.702;11.364;2023-04-01T17:14:54;16.60;85.20
53599;DHT22;39485;45.702;11.364;2023-04-01T17:17:43;16.50;87.10
53599;DHT22;39485;45.702;11.364;2023-04-01T17:23:28;16.30;91.10
53599;DHT22;39485;45.702;11.364;2023-04-01T17:32:00;15.70;91.80
53599;DHT22;39485;45.702;11.364;2023-04-01T17:42:46;15.10;93.60
53599;DHT22;39485;45.702;11.364;2023-04-01T17:45:31;15.00;94.10
53599;DHT22;39485;45.702;11.364;2023-04-01T17:50:44;14.80;95.70
53599;DHT22;39485;45.702;11.364;2023-04-01T17:55:53;14.60;97.80
53599;DHT22;39485;45.702;11.364;2023-04-01T17:58:34;14.50;99.00
53599;DHT22;39485;45.702;11.364;2023-04-01T18:01:09;14.30;99.80
53599;DHT22;39485;45.702;11.364;2023-04-01T18:26:35;13.60;99.90
53599;DHT22;39485;45.702;11.364;2023-04-01T18:32:49;13.50;99.90
53599;DHT22;39485;45.702;11.364;2023-04-01T18:35:24;13.50;99.90
53599;DHT22;39485;45.702;11.364;2023-04-01T18:37:58;13.40;99.90
53599;DHT22;39485;45.702;11.364;2023-04-01T18:46:00;13.40;99.90
53599;DHT22;39485;45.702;11.364;2023-04-01T18:54:32;13.30;99.90
53599;DHT22;39485;45.702;11.364;2023-04-01T18:57:12;13.30;99.90
53599;DHT22;39485;45.702;11.364;2023-04-01T19:05:32;13.30;99.90
53599;DHT22;39485;45.702;11.364;2023-04-01T19:14:11;13.20;99.90
53599;DHT22;39485;45.702;11.364;2023-04-01T19:17:26;13.20;99.90
53599;DHT22;39485;45.702;11.364;2023-04-01T19:20:42;13.20;99.90
53599;DHT22;39485;45.702;11.364;2023-04-01T19:22:55;13.20;99.90
53599;DHT22;39485;45.702;11.364;2023-04-01T19:31:25;13.20;99.90
53599;DHT22;39485;45.702;11.364;2023-04-01T19:36:50;13.30;99.90
53599;DHT22;39485;45.702;11.364;2023-04-01T20:00:57;13.20;99.90
53599;DHT22;39485;45.702;11.364;2023-04-01T20:03:54;13.10;99.90
53599;DHT22;39485;45.702;11.364;2023-04-01T20:06:48;13.10;99.90
53599;DHT22;39485;45.702;11.364;2023-04-01T20:11:57;13.00;99.90
53599;DHT22;39485;45.702;11.364;2023-04-01T20:14:33;13.00;99.90
53599;DHT22;39485;45.702;11.364;2023-04-01T20:17:53;12.90;99.90
53599;DHT22;39485;45.702;11.364;2023-04-01T20:19:55;12.90;99.90
53599;DHT22;39485;45.702;11.364;2023-04-01T20:25:05;12.90;99.90
53599;DHT22;39485;45.702;11.364;2023-04-01T20:27:40;12.90;99.90
53599;DHT22;39485;45.702;11.364;2023-04-01T20:36:16;13.00;99.90
53599;DHT22;39485;45.702;11.364;2023-04-01T20:50:24;12.80;99.90
53599;DHT22;39485;45.702;11.364;2023-04-01T21:01:10;12.80;99.90
53599;DHT22;39485;45.702;11.364;2023-04-01T21:03:56;12.80;99.90
53599;DHT22;39485;45.702;11.364;2023-04-01T21:06:58;12.70;99.90
53599;DHT22;39485;45.702;11.364;2023-04-01T21:12:25;12.70;99.90
53599;DHT22;39485;45.702;11.364;2023-04-01T21:18:04;12.60;99.90
53599;DHT22;39485;45.702;11.364;2023-04-01T21:20:57;12.60;99.90
53599;DHT22;39485;45.702;11.364;2023-04-01T21:34:04;12.40;99.90
53599;DHT22;39485;45.702;11.364;2023-04-01T21:56:07;12.10;99.90
53599;DHT22;39485;45.702;11.364;2023-04-01T22:06:55;11.90;99.90
53599;DHT22;39485;45.702;11.364;2023-04-01T22:09:31;11.90;99.90
53599;DHT22;39485;45.702;11.364;2023-04-01T22:12:23;11.90;99.90
53599;DHT22;39485;45.702;11.364;2023-04-01T22:17:52;11.90;99.90
53599;DHT22;39485;45.702;11.364;2023-04-01T22:20:47;11.90;99.90
53599;DHT22;39485;45.702;11.364;2023-04-01T22:31:22;11.90;99.90
53599;DHT22;39485;45.702;11.364;2023-04-01T22:34:16;11.90;99.90
53599;DHT22;39485;45.702;11.364;2023-04-01T22:37:07;11.90;99.90
53599;DHT22;39485;45.702;11.364;2023-04-01T22:50:18;12.00;99.90
53599;DHT22;39485;45.702;11.364;2023-04-01T22:52:47;11.90;99.90
53599;DHT22;39485;45.702;11.364;2023-04-01T22:57:47;12.00;99.90
53599;DHT22;39485;45.702;11.364;2023-04-01T23:00:26;12.00;99.90
53599;DHT22;39485;45.702;11.364;2023-04-01T23:03:18;11.90;99.90
53599;DHT22;39485;45.702;11.364;2023-04-01T23:05:55;12.00;99.90
53599;DHT22;39485;45.702;11.364;2023-04-01T23:11:10;11.90;99.90
53599;DHT22;39485;45.702;11.364;2023-04-01T23:13:43;11.90;99.90
53599;DHT22;39485;45.702;11.364;2023-04-01T23:16:11;11.90;99.90
53599;DHT22;39485;45.702;11.364;2023-04-01T23:18:51;11.90;99.90
53599;DHT22;39485;45.702;11.364;2023-04-01T23:21:41;11.90;99.90
53599;DHT22;39485;45.702;11.364;2023-04-01T23:24:48;11.90;99.90
53599;DHT22;39485;45.702;11.364;2023-04-01T23:27:23;11.90;99.90
53599;DHT22;39485;45.702;11.364;2023-04-01T23:29:53;11.90;99.90
53599;DHT22;39485;45.702;11.364;2023-04-01T23:32:19;11.90;99.90
53599;DHT22;39485;45.702;11.364;2023-04-01T23:34:49;11.90;99.90
53599;DHT22;39485;45.702;11.364;2023-04-01T23:37:17;11.90;99.90
53599;DHT22;39485;45.702;11.364;2023-04-01T23:39:53;11.90;99.90
53599;DHT22;39485;45.702;11.364;2023-04-01T23:44:46;11.90;99.90
53599;DHT22;39485;45.702;11.364;2023-04-01T23:47:23;11.80;99.90
53599;DHT22;39485;45.702;11.364;2023-04-01T23:49:55;11.80;99.90
53599;DHT22;39485;45.702;11.364;2023-04-01T23:55:25;11.80;99.90
53599;DHT22;39485;45.702;11.364;2023-04-01T23:58:24;11.80;99.90
